Wolke Sonne

Wetter Roßtal

Gehe zu: Ammerndorf

Tageswerte vom Montag, 18.01.2021

Optionen

Tag:
Erweitert:

Alle Werte vom Montag, 18.01.2021

Einen Moment bitte, die Daten werden aufbereitet...

UhrzeitTemperaturFeuchteLuftdruckNiederschlagEvapotranspirationNiederschlag?WindWindböenRegenrateWindrichtungHelligkeitSolarstrahlungUV-IndexSonne?Feinstaub 10µmUhrzeit
Diagramm IconDiagramm IconDiagramm IconDiagramm IconDiagramm IconDiagramm IconDiagramm IconDiagramm IconDiagramm IconDiagramm IconDiagramm IconDiagramm IconDiagramm IconDiagramm IconDiagramm Icon
00:00-1,7 °C 94 % 1024,6 hPa 0,0 mm 0,0 mm nein 1,6 km/h 9,7 km/h 0,0 mm/h WNW 0,000 klux 0,0 W/qm 0,0 nein - 00:00
00:05-1,1 °C 94 % 1024,5 hPa 0,0 mm 0,0 mm nein 3,2 km/h 8,0 km/h 0,0 mm/h WNW 0,000 klux 0,0 W/qm 0,0 nein - 00:05
00:10-1,1 °C 95 % 1024,5 hPa 0,0 mm 0,0 mm nein 4,8 km/h 9,7 km/h 0,0 mm/h W 0,000 klux 0,0 W/qm 0,0 nein - 00:10
00:15-1,1 °C 95 % 1024,4 hPa 0,0 mm 0,0 mm nein 3,2 km/h 11,3 km/h 0,0 mm/h W 0,000 klux 0,0 W/qm 0,0 nein - 00:15
00:20-1,1 °C 95 % 1024,4 hPa 0,0 mm 0,0 mm nein 3,2 km/h 12,9 km/h 0,0 mm/h W 0,000 klux 0,0 W/qm 0,0 nein - 00:20
00:25-1,1 °C 95 % 1024,4 hPa 0,0 mm 0,0 mm nein 1,6 km/h 6,4 km/h 0,0 mm/h WSW 0,000 klux 0,0 W/qm 0,0 nein - 00:25
00:30-1,1 °C 95 % 1024,3 hPa 0,0 mm 0,0 mm nein 3,2 km/h 8,0 km/h 0,0 mm/h WSW 0,000 klux 0,0 W/qm 0,0 nein - 00:30
00:35-1,1 °C 95 % 1024,3 hPa 0,0 mm 0,0 mm nein 3,2 km/h 8,0 km/h 0,0 mm/h W 0,000 klux 0,0 W/qm 0,0 nein - 00:35
00:40-1,1 °C 95 % 1024,3 hPa 0,0 mm 0,0 mm nein 3,2 km/h 8,0 km/h 0,0 mm/h W 0,000 klux 0,0 W/qm 0,0 nein - 00:40
00:45-1,1 °C 95 % 1024,3 hPa 0,0 mm 0,0 mm nein 1,6 km/h 6,4 km/h 0,0 mm/h W 0,000 klux 0,0 W/qm 0,0 nein - 00:45
00:50-0,6 °C 95 % 1024,2 hPa 0,0 mm 0,0 mm nein 1,6 km/h 6,4 km/h 0,0 mm/h W 0,000 klux 0,0 W/qm 0,0 nein - 00:50
00:55-0,6 °C 95 % 1024,1 hPa 0,0 mm 0,0 mm nein 3,2 km/h 8,0 km/h 0,0 mm/h W 0,000 klux 0,0 W/qm 0,0 nein - 00:55
01:00-0,6 °C 95 % 1024,2 hPa 0,0 mm 0,0 mm nein 3,2 km/h 8,0 km/h 0,0 mm/h W 0,000 klux 0,0 W/qm 0,0 nein - 01:00
01:05-0,6 °C 95 % 1024,2 hPa 0,0 mm 0,0 mm nein 4,8 km/h 14,5 km/h 0,0 mm/h W 0,000 klux 0,0 W/qm 0,0 nein - 01:05
01:10-0,6 °C 95 % 1024,2 hPa 0,0 mm 0,0 mm nein 4,8 km/h 14,5 km/h 0,0 mm/h W 0,000 klux 0,0 W/qm 0,0 nein - 01:10
01:15-0,6 °C 95 % 1024,2 hPa 0,0 mm 0,0 mm nein 4,8 km/h 9,7 km/h 0,0 mm/h W 0,000 klux 0,0 W/qm 0,0 nein - 01:15
01:20-0,6 °C 95 % 1024,2 hPa 0,0 mm 0,0 mm nein 4,8 km/h 9,7 km/h 0,0 mm/h W 0,000 klux 0,0 W/qm 0,0 nein - 01:20
01:25-0,6 °C 95 % 1024,1 hPa 0,0 mm 0,0 mm nein 4,8 km/h 11,3 km/h 0,0 mm/h W 0,000 klux 0,0 W/qm 0,0 nein - 01:25
01:300,0 °C 96 % 1024,0 hPa 0,0 mm 0,0 mm nein 4,8 km/h 11,3 km/h 0,0 mm/h W 0,000 klux 0,0 W/qm 0,0 nein - 01:30
01:350,0 °C 96 % 1024,1 hPa 0,0 mm 0,0 mm nein 6,4 km/h 17,7 km/h 0,0 mm/h W 0,000 klux 0,0 W/qm 0,0 nein - 01:35
01:400,0 °C 96 % 1024,1 hPa 0,0 mm 0,0 mm nein 6,4 km/h 12,9 km/h 0,0 mm/h W 0,000 klux 0,0 W/qm 0,0 nein - 01:40
01:450,0 °C 96 % 1024,0 hPa 0,0 mm 0,0 mm nein 8,0 km/h 19,3 km/h 0,0 mm/h W 0,000 klux 0,0 W/qm 0,0 nein - 01:45
01:500,0 °C 96 % 1024,1 hPa 0,0 mm 0,0 mm nein 6,4 km/h 19,3 km/h 0,0 mm/h W 0,000 klux 0,0 W/qm 0,0 nein - 01:50
01:550,0 °C 96 % 1024,0 hPa 0,0 mm 0,0 mm nein 8,0 km/h 17,7 km/h 0,0 mm/h W 0,000 klux 0,0 W/qm 0,0 nein - 01:55
UhrzeitTemperaturFeuchteLuftdruckNiederschlagEvapotranspirationNiederschlag?WindWindböenRegenrateWindrichtungHelligkeitSolarstrahlungUV-IndexSonne?Feinstaub 10µmUhrzeit
02:000,0 °C 96 % 1024,0 hPa 0,0 mm 0,0 mm nein 8,0 km/h 16,1 km/h 0,0 mm/h W 0,000 klux 0,0 W/qm 0,0 nein - 02:00
02:050,6 °C 96 % 1024,0 hPa 0,0 mm 0,0 mm nein 6,4 km/h 17,7 km/h 0,0 mm/h W 0,000 klux 0,0 W/qm 0,0 nein - 02:05
02:100,6 °C 96 % 1023,9 hPa 0,0 mm 0,0 mm nein 8,0 km/h 17,7 km/h 0,0 mm/h W 0,000 klux 0,0 W/qm 0,0 nein - 02:10
02:150,6 °C 96 % 1023,9 hPa 0,0 mm 0,0 mm nein 8,0 km/h 19,3 km/h 0,0 mm/h W 0,000 klux 0,0 W/qm 0,0 nein - 02:15
02:200,6 °C 96 % 1024,0 hPa 0,0 mm 0,0 mm nein 8,0 km/h 17,7 km/h 0,0 mm/h W 0,000 klux 0,0 W/qm 0,0 nein - 02:20
02:250,6 °C 96 % 1023,9 hPa 0,0 mm 0,0 mm nein 9,7 km/h 17,7 km/h 0,0 mm/h W 0,000 klux 0,0 W/qm 0,0 nein - 02:25
02:300,6 °C 96 % 1024,0 hPa 0,0 mm 0,0 mm nein 6,4 km/h 14,5 km/h 0,0 mm/h W 0,000 klux 0,0 W/qm 0,0 nein - 02:30
02:350,6 °C 96 % 1023,9 hPa 0,0 mm 0,0 mm nein 8,0 km/h 17,7 km/h 0,0 mm/h W 0,000 klux 0,0 W/qm 0,0 nein - 02:35
02:400,6 °C 96 % 1024,0 hPa 0,0 mm 0,0 mm nein 8,0 km/h 16,1 km/h 0,0 mm/h W 0,000 klux 0,0 W/qm 0,0 nein - 02:40
02:450,6 °C 96 % 1023,9 hPa 0,0 mm 0,0 mm nein 6,4 km/h 16,1 km/h 0,0 mm/h W 0,000 klux 0,0 W/qm 0,0 nein - 02:45
02:500,6 °C 96 % 1023,8 hPa 0,0 mm 0,0 mm nein 6,4 km/h 17,7 km/h 0,0 mm/h W 0,000 klux 0,0 W/qm 0,0 nein - 02:50
02:550,6 °C 96 % 1023,9 hPa 0,0 mm 0,0 mm nein 3,2 km/h 9,7 km/h 0,0 mm/h SSW 0,000 klux 0,0 W/qm 0,0 nein - 02:55
03:000,6 °C 96 % 1023,9 hPa 0,0 mm 0,0 mm nein 8,0 km/h 17,7 km/h 0,0 mm/h W 0,000 klux 0,0 W/qm 0,0 nein - 03:00
03:050,6 °C 96 % 1023,9 hPa 0,0 mm 0,0 mm nein 8,0 km/h 16,1 km/h 0,0 mm/h W 0,000 klux 0,0 W/qm 0,0 nein - 03:05
03:100,6 °C 96 % 1024,0 hPa 0,0 mm 0,0 mm nein 8,0 km/h 20,9 km/h 0,0 mm/h W 0,000 klux 0,0 W/qm 0,0 nein - 03:10
03:150,6 °C 96 % 1024,0 hPa 0,0 mm 0,0 mm nein 6,4 km/h 17,7 km/h 0,0 mm/h W 0,000 klux 0,0 W/qm 0,0 nein - 03:15
03:200,6 °C 96 % 1024,0 hPa 0,0 mm 0,0 mm nein 6,4 km/h 16,1 km/h 0,0 mm/h W 0,000 klux 0,0 W/qm 0,0 nein - 03:20
03:250,6 °C 96 % 1024,1 hPa 0,0 mm 0,0 mm nein 4,8 km/h 9,7 km/h 0,0 mm/h W 0,000 klux 0,0 W/qm 0,0 nein - 03:25
03:300,6 °C 96 % 1024,1 hPa 0,0 mm 0,0 mm nein 6,4 km/h 14,5 km/h 0,0 mm/h WSW 0,000 klux 0,0 W/qm 0,0 nein - 03:30
03:350,6 °C 96 % 1024,1 hPa 0,0 mm 0,0 mm nein 6,4 km/h 12,9 km/h 0,0 mm/h WSW 0,000 klux 0,0 W/qm 0,0 nein - 03:35
03:400,6 °C 96 % 1024,1 hPa 0,0 mm 0,0 mm nein 4,8 km/h 16,1 km/h 0,0 mm/h W 0,000 klux 0,0 W/qm 0,0 nein - 03:40
03:450,6 °C 96 % 1024,1 hPa 0,0 mm 0,0 mm nein 6,4 km/h 14,5 km/h 0,0 mm/h W 0,000 klux 0,0 W/qm 0,0 nein - 03:45
03:500,6 °C 96 % 1024,2 hPa 0,0 mm 0,0 mm nein 8,0 km/h 17,7 km/h 0,0 mm/h W 0,000 klux 0,0 W/qm 0,0 nein - 03:50
03:550,6 °C 96 % 1024,2 hPa 0,0 mm 0,0 mm nein 8,0 km/h 19,3 km/h 0,0 mm/h W 0,000 klux 0,0 W/qm 0,0 nein - 03:55
UhrzeitTemperaturFeuchteLuftdruckNiederschlagEvapotranspirationNiederschlag?WindWindböenRegenrateWindrichtungHelligkeitSolarstrahlungUV-IndexSonne?Feinstaub 10µmUhrzeit
04:000,6 °C 96 % 1024,2 hPa 0,0 mm 0,0 mm nein 9,7 km/h 19,3 km/h 0,0 mm/h W 0,000 klux 0,0 W/qm 0,0 nein - 04:00
04:050,6 °C 96 % 1024,1 hPa 0,0 mm 0,0 mm nein 11,3 km/h 19,3 km/h 0,0 mm/h W 0,000 klux 0,0 W/qm 0,0 nein - 04:05
04:100,6 °C 96 % 1024,1 hPa 0,0 mm 0,0 mm nein 6,4 km/h 12,9 km/h 0,0 mm/h W 0,000 klux 0,0 W/qm 0,0 nein - 04:10
04:150,6 °C 96 % 1024,1 hPa 0,0 mm 0,0 mm nein 6,4 km/h 14,5 km/h 0,0 mm/h W 0,000 klux 0,0 W/qm 0,0 nein - 04:15
04:200,6 °C 96 % 1024,2 hPa 0,2 mm 0,0 mm ja 6,4 km/h 14,5 km/h 0,0 mm/h W 0,000 klux 0,0 W/qm 0,0 nein - 04:20
04:250,6 °C 96 % 1024,3 hPa 0,0 mm 0,0 mm nein 6,4 km/h 16,1 km/h 0,0 mm/h WNW 0,000 klux 0,0 W/qm 0,0 nein - 04:25
04:300,6 °C 96 % 1024,2 hPa 0,0 mm 0,0 mm nein 8,0 km/h 14,5 km/h 0,0 mm/h W 0,000 klux 0,0 W/qm 0,0 nein - 04:30
04:350,6 °C 96 % 1024,2 hPa 0,0 mm 0,0 mm nein 6,4 km/h 16,1 km/h 0,0 mm/h WNW 0,000 klux 0,0 W/qm 0,0 nein - 04:35
04:400,6 °C 96 % 1024,3 hPa 0,0 mm 0,0 mm nein 6,4 km/h 14,5 km/h 0,0 mm/h WNW 0,000 klux 0,0 W/qm 0,0 nein - 04:40
04:450,6 °C 96 % 1024,3 hPa 0,2 mm 0,0 mm ja 6,4 km/h 12,9 km/h 0,0 mm/h W 0,000 klux 0,0 W/qm 0,0 nein - 04:45
04:500,6 °C 96 % 1024,3 hPa 0,0 mm 0,0 mm nein 6,4 km/h 19,3 km/h 0,0 mm/h WNW 0,000 klux 0,0 W/qm 0,0 nein - 04:50
04:550,6 °C 96 % 1024,4 hPa 0,0 mm 0,0 mm nein 6,4 km/h 16,1 km/h 0,0 mm/h W 0,000 klux 0,0 W/qm 0,0 nein - 04:55
05:000,6 °C 96 % 1024,5 hPa 0,2 mm 0,0 mm ja 6,4 km/h 12,9 km/h 0,8 mm/h W 0,000 klux 0,0 W/qm 0,0 nein - 05:00
05:050,6 °C 96 % 1024,4 hPa 0,0 mm 0,0 mm nein 8,0 km/h 17,7 km/h 0,8 mm/h W 0,000 klux 0,0 W/qm 0,0 nein - 05:05
05:100,6 °C 96 % 1024,4 hPa 0,2 mm 0,0 mm ja 6,4 km/h 14,5 km/h 1,0 mm/h WNW 0,000 klux 0,0 W/qm 0,0 nein - 05:10
05:150,6 °C 96 % 1024,5 hPa 0,0 mm 0,0 mm nein 8,0 km/h 16,1 km/h 1,0 mm/h W 0,000 klux 0,0 W/qm 0,0 nein - 05:15
05:200,6 °C 96 % 1024,5 hPa 0,0 mm 0,0 mm nein 8,0 km/h 14,5 km/h 1,0 mm/h WNW 0,000 klux 0,0 W/qm 0,0 nein - 05:20
05:250,6 °C 96 % 1024,5 hPa 0,2 mm 0,0 mm ja 6,4 km/h 11,3 km/h 1,0 mm/h WNW 0,000 klux 0,0 W/qm 0,0 nein - 05:25
05:300,6 °C 96 % 1024,6 hPa 0,0 mm 0,0 mm nein 8,0 km/h 17,7 km/h 0,8 mm/h WNW 0,000 klux 0,0 W/qm 0,0 nein - 05:30
05:350,6 °C 96 % 1024,5 hPa 0,0 mm 0,0 mm nein 9,7 km/h 22,5 km/h 0,8 mm/h WNW 0,000 klux 0,0 W/qm 0,0 nein - 05:35
05:400,6 °C 96 % 1024,6 hPa 0,0 mm 0,0 mm nein 8,0 km/h 14,5 km/h 0,8 mm/h WNW 0,000 klux 0,0 W/qm 0,0 nein - 05:40
05:450,6 °C 96 % 1024,7 hPa 0,0 mm 0,0 mm nein 9,7 km/h 17,7 km/h 0,0 mm/h W 0,000 klux 0,0 W/qm 0,0 nein - 05:45
05:500,6 °C 96 % 1024,7 hPa 0,0 mm 0,0 mm nein 9,7 km/h 17,7 km/h 0,0 mm/h WNW 0,000 klux 0,0 W/qm 0,0 nein - 05:50
05:550,6 °C 96 % 1024,7 hPa 0,2 mm 0,0 mm ja 8,0 km/h 17,7 km/h 0,0 mm/h WNW 0,000 klux 0,0 W/qm 0,0 nein - 05:55
UhrzeitTemperaturFeuchteLuftdruckNiederschlagEvapotranspirationNiederschlag?WindWindböenRegenrateWindrichtungHelligkeitSolarstrahlungUV-IndexSonne?Feinstaub 10µmUhrzeit
06:000,6 °C 96 % 1024,7 hPa 0,0 mm 0,0 mm nein 8,0 km/h 16,1 km/h 0,0 mm/h WNW 0,000 klux 0,0 W/qm 0,0 nein - 06:00
06:050,6 °C 96 % 1024,7 hPa 0,0 mm 0,0 mm nein 8,0 km/h 17,7 km/h 0,0 mm/h WNW 0,000 klux 0,0 W/qm 0,0 nein - 06:05
06:100,6 °C 96 % 1024,7 hPa 0,0 mm 0,0 mm nein 6,4 km/h 14,5 km/h 0,0 mm/h WNW 0,000 klux 0,0 W/qm 0,0 nein - 06:10
06:150,6 °C 96 % 1024,7 hPa 0,0 mm 0,0 mm nein 8,0 km/h 16,1 km/h 0,0 mm/h WNW 0,000 klux 0,0 W/qm 0,0 nein - 06:15
06:200,6 °C 96 % 1024,8 hPa 0,0 mm 0,0 mm nein 6,4 km/h 9,7 km/h 0,0 mm/h WNW 0,000 klux 0,0 W/qm 0,0 nein - 06:20
06:250,6 °C 96 % 1024,8 hPa 0,0 mm 0,0 mm nein 8,0 km/h 20,9 km/h 0,0 mm/h W 0,000 klux 0,0 W/qm 0,0 nein - 06:25
06:300,6 °C 96 % 1024,9 hPa 0,0 mm 0,0 mm nein 8,0 km/h 16,1 km/h 0,0 mm/h WNW 0,000 klux 0,0 W/qm 0,0 nein - 06:30
06:350,6 °C 96 % 1024,9 hPa 0,0 mm 0,0 mm nein 6,4 km/h 16,1 km/h 0,0 mm/h WNW 0,000 klux 0,0 W/qm 0,0 nein - 06:35
06:400,6 °C 96 % 1025,0 hPa 0,0 mm 0,0 mm nein 8,0 km/h 17,7 km/h 0,0 mm/h WNW 0,000 klux 0,0 W/qm 0,0 nein - 06:40
06:450,6 °C 96 % 1025,2 hPa 0,0 mm 0,0 mm nein 8,0 km/h 16,1 km/h 0,0 mm/h W 0,000 klux 0,0 W/qm 0,0 nein - 06:45
06:500,6 °C 96 % 1025,0 hPa 0,0 mm 0,0 mm nein 11,3 km/h 22,5 km/h 0,0 mm/h W 0,000 klux 0,0 W/qm 0,0 nein - 06:50
06:550,6 °C 96 % 1025,0 hPa 0,0 mm 0,0 mm nein 9,7 km/h 25,7 km/h 0,0 mm/h WNW 0,000 klux 0,0 W/qm 0,0 nein - 06:55
07:000,6 °C 96 % 1025,2 hPa 0,0 mm 0,0 mm nein 8,0 km/h 25,7 km/h 0,0 mm/h WNW 0,000 klux 0,0 W/qm 0,0 nein - 07:00
07:050,6 °C 96 % 1025,3 hPa 0,0 mm 0,0 mm nein 8,0 km/h 16,1 km/h 0,0 mm/h WNW 0,000 klux 0,0 W/qm 0,0 nein - 07:05
07:100,6 °C 96 % 1025,3 hPa 0,0 mm 0,0 mm nein 8,0 km/h 17,7 km/h 0,0 mm/h WNW 0,000 klux 0,0 W/qm 0,0 nein - 07:10
07:150,6 °C 96 % 1025,3 hPa 0,0 mm 0,0 mm nein 8,0 km/h 14,5 km/h 0,0 mm/h W 0,000 klux 0,0 W/qm 0,0 nein - 07:15
Gesamt: 0,2 °C 96 % 1024,3 hPa 1,2 mm 0,0 mm ja 6,6 km/h 15,1 km/h 0,1 mm/h 0 0,000 klux 0,0 W/qm 0,0 nein nan µg/m³

Insgesamt 88 Zeilen mal 15 Spalten = 1320 Werte werden angezeigt.

www.wetter-rosstal.de   •   www.wetter-franken.de   •   www.lightningmaps.org   •   Start   •   Kontakt / Datenschutz   •   PC-Kümmerer